CPA458 VHHH-RCKH
Flight info
| Callsign | CPA458 |
|---|---|
| Flight time | 0h 59m |
| Altitude | 37000 |
| Route | DALOL1D DALOL V631 ENVAR M750 DADON G581 PORCH DCT |
| Aircraft | B77W/H-SDE1E2E3FGHIJ2J3J4J5M1RWXY/LB1D1 |
Departure
| Time | 2026-04-23 13:04 |
|---|---|
| Airport | Hong Kong International Airport (VHHH) |
Arrival
| Time | 2026-04-23 14:04 |
|---|---|
| Airport | Kaohsiung International Airport (RCKH) |
| Time | Latitude | Longitude | Altitude | Speed | Heading |
|---|---|---|---|---|---|
| 2026-04-23 12:26 | 22.31143 | 113.92583 | 42 ft | 0 kts | 116° |
| 2026-04-23 12:30 | 22.31141 | 113.92588 | 42 ft | 0 kts | 116° |
| 2026-04-23 12:46 | 22.31143 | 113.92584 | 42 ft | 2 kts | 116° |
| 2026-04-23 12:46 | 22.31151 | 113.92566 | 40 ft | 3 kts | 115° |
| 2026-04-23 12:46 | 22.31160 | 113.92546 | 39 ft | 3 kts | 115° |
| 2026-04-23 12:47 | 22.31168 | 113.92527 | 39 ft | 3 kts | 105° |
| 2026-04-23 12:47 | 22.31170 | 113.92508 | 37 ft | 3 kts | 67° |
| 2026-04-23 12:47 | 22.31160 | 113.92494 | 39 ft | 2 kts | 28° |
| 2026-04-23 12:47 | 22.31150 | 113.92488 | 39 ft | 3 kts | 26° |
| 2026-04-23 12:48 | 22.31136 | 113.92481 | 41 ft | 2 kts | 26° |
| 2026-04-23 12:48 | 22.31132 | 113.92479 | 41 ft | 2 kts | 26° |
| 2026-04-23 12:50 | 22.31154 | 113.92490 | 39 ft | 14 kts | 26° |
| 2026-04-23 12:50 | 22.31226 | 113.92511 | 42 ft | 7 kts | 339° |
| 2026-04-23 12:50 | 22.31261 | 113.92470 | 42 ft | 8 kts | 304° |
| 2026-04-23 12:51 | 22.31287 | 113.92416 | 42 ft | 9 kts | 296° |
| 2026-04-23 12:51 | 22.31323 | 113.92337 | 42 ft | 14 kts | 296° |
| 2026-04-23 12:51 | 22.31364 | 113.92246 | 42 ft | 13 kts | 296° |
| 2026-04-23 12:51 | 22.31387 | 113.92194 | 40 ft | 0 kts | 295° |
| 2026-04-23 12:56 | 22.31413 | 113.92136 | 42 ft | 17 kts | 296° |
| 2026-04-23 12:56 | 22.31440 | 113.92033 | 42 ft | 14 kts | 261° |
| 2026-04-23 12:56 | 22.31413 | 113.91943 | 42 ft | 10 kts | 245° |
| 2026-04-23 12:57 | 22.31350 | 113.91926 | 42 ft | 11 kts | 169° |
| 2026-04-23 12:57 | 22.31249 | 113.91961 | 42 ft | 21 kts | 161° |
| 2026-04-23 12:57 | 22.31093 | 113.92020 | 42 ft | 24 kts | 161° |
| 2026-04-23 12:57 | 22.30937 | 113.92079 | 42 ft | 24 kts | 161° |
| 2026-04-23 12:58 | 22.30784 | 113.92136 | 42 ft | 23 kts | 161° |
| 2026-04-23 12:58 | 22.30671 | 113.92178 | 42 ft | 13 kts | 160° |
| 2026-04-23 12:58 | 22.30602 | 113.92231 | 42 ft | 13 kts | 102° |
| 2026-04-23 12:58 | 22.30622 | 113.92328 | 42 ft | 14 kts | 72° |
| 2026-04-23 12:59 | 22.30655 | 113.92427 | 42 ft | 14 kts | 70° |
| 2026-04-23 12:59 | 22.30689 | 113.92534 | 42 ft | 15 kts | 71° |
| 2026-04-23 12:59 | 22.30728 | 113.92657 | 42 ft | 20 kts | 71° |
| 2026-04-23 12:59 | 22.30774 | 113.92797 | 41 ft | 20 kts | 71° |
| 2026-04-23 13:00 | 22.30820 | 113.92939 | 41 ft | 20 kts | 71° |
| 2026-04-23 13:00 | 22.30850 | 113.93031 | 41 ft | 18 kts | 70° |
| 2026-04-23 13:00 | 22.30862 | 113.93103 | 41 ft | 6 kts | 114° |
| 2026-04-23 13:00 | 22.30835 | 113.93126 | 41 ft | 0 kts | 154° |
| 2026-04-23 13:02 | 22.30809 | 113.93138 | 41 ft | 13 kts | 158° |
| 2026-04-23 13:02 | 22.30720 | 113.93154 | 40 ft | 14 kts | 211° |
| 2026-04-23 13:02 | 22.30680 | 113.93073 | 40 ft | 7 kts | 251° |
| 2026-04-23 13:03 | 22.30675 | 113.93058 | 40 ft | 0 kts | 250° |
| 2026-04-23 13:03 | 22.30674 | 113.93055 | 40 ft | 4 kts | 250° |
| 2026-04-23 13:03 | 22.30609 | 113.92856 | 40 ft | 64 kts | 251° |
| 2026-04-23 13:04 | 22.30360 | 113.92082 | 43 ft | 150 kts | 251° |
| 2026-04-23 13:04 | 22.29953 | 113.90808 | 251 ft | 198 kts | 252° |
| 2026-04-23 13:04 | 22.29470 | 113.89419 | 1221 ft | 190 kts | 253° |
| 2026-04-23 13:04 | 22.29034 | 113.88058 | 2155 ft | 198 kts | 253° |
| 2026-04-23 13:05 | 22.28559 | 113.86573 | 2594 ft | 226 kts | 248° |
| 2026-04-23 13:05 | 22.27759 | 113.85084 | 3459 ft | 230 kts | 236° |
| 2026-04-23 13:05 | 22.26823 | 113.83634 | 4268 ft | 244 kts | 236° |
| 2026-04-23 13:05 | 22.25718 | 113.82225 | 5181 ft | 246 kts | 217° |
| 2026-04-23 13:06 | 22.22505 | 113.81146 | 7276 ft | 250 kts | 187° |
| 2026-04-23 13:06 | 22.20768 | 113.81139 | 8096 ft | 258 kts | 175° |
| 2026-04-23 13:06 | 22.19087 | 113.81931 | 8892 ft | 274 kts | 144° |
| 2026-04-23 13:07 | 22.17732 | 113.83402 | 9763 ft | 280 kts | 136° |
| 2026-04-23 13:07 | 22.16427 | 113.84996 | 10545 ft | 285 kts | 130° |
| 2026-04-23 13:07 | 22.15493 | 113.86938 | 11260 ft | 299 kts | 114° |
| 2026-04-23 13:07 | 22.14733 | 113.89067 | 11818 ft | 305 kts | 114° |
| 2026-04-23 13:08 | 22.13957 | 113.91198 | 11910 ft | 307 kts | 114° |
| 2026-04-23 13:08 | 22.13485 | 113.93439 | 11922 ft | 310 kts | 97° |
| 2026-04-23 13:08 | 22.13299 | 113.95912 | 11956 ft | 353 kts | 96° |
| 2026-04-23 13:08 | 22.13087 | 113.98712 | 11960 ft | 394 kts | 96° |
| 2026-04-23 13:09 | 22.12832 | 114.01774 | 11957 ft | 418 kts | 97° |
| 2026-04-23 13:09 | 22.12561 | 114.04846 | 12144 ft | 413 kts | 97° |
| 2026-04-23 13:09 | 22.12211 | 114.07952 | 12430 ft | 413 kts | 101° |
| 2026-04-23 13:09 | 22.11704 | 114.10966 | 12370 ft | 417 kts | 103° |
| 2026-04-23 13:10 | 22.11129 | 114.14023 | 12353 ft | 414 kts | 103° |
| 2026-04-23 13:10 | 22.10576 | 114.17061 | 12471 ft | 416 kts | 102° |
| 2026-04-23 13:10 | 22.10039 | 114.20161 | 13429 ft | 422 kts | 102° |
| 2026-04-23 13:10 | 22.09506 | 114.23300 | 14442 ft | 426 kts | 102° |
| 2026-04-23 13:11 | 22.08973 | 114.26462 | 15372 ft | 431 kts | 102° |
| 2026-04-23 13:11 | 22.08431 | 114.29663 | 16239 ft | 437 kts | 102° |
| 2026-04-23 13:11 | 22.07878 | 114.32915 | 17071 ft | 445 kts | 103° |
| 2026-04-23 13:11 | 22.07156 | 114.36159 | 17773 ft | 448 kts | 113° |
| 2026-04-23 13:12 | 22.05647 | 114.39073 | 18409 ft | 445 kts | 129° |
| 2026-04-23 13:12 | 22.03816 | 114.41797 | 19010 ft | 452 kts | 129° |
| 2026-04-23 13:12 | 22.01970 | 114.44571 | 19724 ft | 458 kts | 128° |
| 2026-04-23 13:12 | 22.00138 | 114.47405 | 20462 ft | 463 kts | 128° |
| 2026-04-23 13:13 | 21.98313 | 114.50291 | 21151 ft | 469 kts | 127° |
| 2026-04-23 13:13 | 21.96471 | 114.53222 | 21804 ft | 476 kts | 127° |
| 2026-04-23 13:13 | 21.94576 | 114.56111 | 22432 ft | 481 kts | 130° |
| 2026-04-23 13:13 | 21.92546 | 114.58999 | 23071 ft | 486 kts | 131° |
| 2026-04-23 13:14 | 21.90468 | 114.61883 | 23673 ft | 491 kts | 131° |
| 2026-04-23 13:14 | 21.88361 | 114.64810 | 24244 ft | 494 kts | 131° |
| 2026-04-23 13:14 | 21.86274 | 114.67738 | 24806 ft | 493 kts | 131° |
| 2026-04-23 13:14 | 21.84185 | 114.70694 | 24922 ft | 500 kts | 130° |
| 2026-04-23 13:15 | 21.82084 | 114.73683 | 24912 ft | 498 kts | 130° |
| 2026-04-23 13:15 | 21.80003 | 114.76649 | 24909 ft | 495 kts | 130° |
| 2026-04-23 13:15 | 21.77927 | 114.79600 | 24910 ft | 495 kts | 131° |
| 2026-04-23 13:15 | 21.75926 | 114.82603 | 24899 ft | 494 kts | 123° |
| 2026-04-23 13:16 | 21.74579 | 114.86035 | 24968 ft | 505 kts | 107° |
| 2026-04-23 13:16 | 21.74158 | 114.89817 | 25387 ft | 510 kts | 91° |
| 2026-04-23 13:16 | 21.74236 | 114.93651 | 25864 ft | 515 kts | 90° |
| 2026-04-23 13:16 | 21.74311 | 114.97475 | 26400 ft | 518 kts | 90° |
| 2026-04-23 13:17 | 21.74354 | 115.01360 | 26970 ft | 520 kts | 91° |
| 2026-04-23 13:17 | 21.74364 | 115.05257 | 27504 ft | 523 kts | 91° |
| 2026-04-23 13:17 | 21.74353 | 115.09182 | 28019 ft | 525 kts | 91° |
| 2026-04-23 13:17 | 21.74333 | 115.13113 | 28522 ft | 528 kts | 91° |
| 2026-04-23 13:18 | 21.74315 | 115.17073 | 28987 ft | 531 kts | 91° |
| 2026-04-23 13:18 | 21.74300 | 115.21055 | 29437 ft | 533 kts | 91° |
| 2026-04-23 13:18 | 21.74288 | 115.25048 | 29853 ft | 536 kts | 91° |
| 2026-04-23 13:18 | 21.74280 | 115.29054 | 30302 ft | 535 kts | 91° |
| 2026-04-23 13:19 | 21.74274 | 115.33046 | 30819 ft | 533 kts | 91° |
| 2026-04-23 13:19 | 21.74266 | 115.37037 | 31366 ft | 531 kts | 91° |
| 2026-04-23 13:19 | 21.74257 | 115.41009 | 31907 ft | 529 kts | 91° |
| 2026-04-23 13:19 | 21.74246 | 115.44911 | 32423 ft | 527 kts | 91° |
| 2026-04-23 13:20 | 21.74233 | 115.48853 | 32946 ft | 526 kts | 91° |
| 2026-04-23 13:20 | 21.74220 | 115.52782 | 33475 ft | 524 kts | 91° |
| 2026-04-23 13:20 | 21.74206 | 115.56698 | 34020 ft | 522 kts | 91° |
| 2026-04-23 13:20 | 21.74192 | 115.60603 | 34459 ft | 521 kts | 91° |
| 2026-04-23 13:21 | 21.74178 | 115.64498 | 34875 ft | 521 kts | 91° |
| 2026-04-23 13:21 | 21.74164 | 115.68392 | 35277 ft | 521 kts | 91° |
| 2026-04-23 13:21 | 21.74150 | 115.72283 | 35689 ft | 520 kts | 91° |
| 2026-04-23 13:21 | 21.74135 | 115.76184 | 36089 ft | 520 kts | 91° |
| 2026-04-23 13:22 | 21.74119 | 115.80023 | 36467 ft | 519 kts | 91° |
| 2026-04-23 13:22 | 21.74102 | 115.83909 | 36853 ft | 519 kts | 91° |
| 2026-04-23 13:22 | 21.74083 | 115.87806 | 36914 ft | 523 kts | 91° |
| 2026-04-23 13:23 | 21.74044 | 115.95603 | 36916 ft | 519 kts | 91° |
| 2026-04-23 13:23 | 21.74001 | 116.03351 | 36922 ft | 517 kts | 91° |
| 2026-04-23 13:24 | 21.73955 | 116.11083 | 36923 ft | 517 kts | 91° |
| 2026-04-23 13:24 | 21.73905 | 116.18780 | 36919 ft | 517 kts | 91° |
| 2026-04-23 13:25 | 21.73852 | 116.26526 | 36922 ft | 518 kts | 91° |
| 2026-04-23 13:25 | 21.73794 | 116.34297 | 36908 ft | 519 kts | 91° |
| 2026-04-23 13:26 | 21.73733 | 116.42076 | 36910 ft | 519 kts | 91° |
| 2026-04-23 13:26 | 21.73669 | 116.49806 | 36911 ft | 520 kts | 91° |
| 2026-04-23 13:27 | 21.73601 | 116.57587 | 36920 ft | 520 kts | 91° |
| 2026-04-23 13:27 | 21.73529 | 116.65376 | 36910 ft | 521 kts | 91° |
| 2026-04-23 13:28 | 21.73489 | 116.73173 | 36912 ft | 521 kts | 89° |
| 2026-04-23 13:28 | 21.74514 | 116.80898 | 36931 ft | 522 kts | 77° |
| 2026-04-23 13:29 | 21.76800 | 116.88290 | 36936 ft | 522 kts | 68° |
| 2026-04-23 13:29 | 21.79519 | 116.95546 | 36910 ft | 522 kts | 68° |
| 2026-04-23 13:30 | 21.82217 | 117.02814 | 36912 ft | 523 kts | 68° |
| 2026-04-23 13:30 | 21.84849 | 117.10065 | 36918 ft | 523 kts | 68° |
| 2026-04-23 13:31 | 21.87478 | 117.17368 | 36918 ft | 523 kts | 69° |
| 2026-04-23 13:31 | 21.90105 | 117.24669 | 36919 ft | 523 kts | 69° |
| 2026-04-23 13:32 | 21.92768 | 117.32070 | 36919 ft | 537 kts | 69° |
| 2026-04-23 13:32 | 21.95493 | 117.39655 | 36926 ft | 548 kts | 69° |
| 2026-04-23 13:33 | 21.98262 | 117.47348 | 36917 ft | 551 kts | 67° |
| 2026-04-23 13:33 | 22.01704 | 117.54700 | 36918 ft | 550 kts | 58° |
| 2026-04-23 13:34 | 22.05746 | 117.61692 | 36917 ft | 548 kts | 57° |
| 2026-04-23 13:34 | 22.09745 | 117.68615 | 36914 ft | 546 kts | 57° |
| 2026-04-23 13:35 | 22.13700 | 117.75596 | 36919 ft | 546 kts | 58° |
| 2026-04-23 13:35 | 22.17640 | 117.82599 | 36917 ft | 546 kts | 58° |
| 2026-04-23 13:36 | 22.21586 | 117.89607 | 36919 ft | 546 kts | 58° |
| 2026-04-23 13:36 | 22.25344 | 117.96744 | 36910 ft | 547 kts | 68° |
| 2026-04-23 13:37 | 22.27018 | 118.04682 | 36931 ft | 547 kts | 87° |
| 2026-04-23 13:37 | 22.26924 | 118.08784 | 36916 ft | 545 kts | 99° |
| 2026-04-23 13:37 | 22.26371 | 118.12839 | 36926 ft | 545 kts | 100° |
| 2026-04-23 13:38 | 22.25310 | 118.20960 | 36921 ft | 546 kts | 99° |
| 2026-04-23 13:38 | 22.24380 | 118.29065 | 36923 ft | 547 kts | 98° |
| 2026-04-23 13:39 | 22.23456 | 118.37229 | 36923 ft | 547 kts | 98° |
| 2026-04-23 13:39 | 22.22512 | 118.45385 | 36924 ft | 547 kts | 98° |
| 2026-04-23 13:40 | 22.21560 | 118.53544 | 36922 ft | 546 kts | 98° |
| 2026-04-23 13:40 | 22.20601 | 118.61674 | 36923 ft | 546 kts | 99° |
| 2026-04-23 13:41 | 22.19673 | 118.69651 | 36720 ft | 525 kts | 98° |
| 2026-04-23 13:41 | 22.19216 | 118.73517 | 36369 ft | 515 kts | 99° |
| 2026-04-23 13:41 | 22.18754 | 118.77349 | 35645 ft | 515 kts | 99° |
| 2026-04-23 13:41 | 22.18286 | 118.81203 | 34750 ft | 518 kts | 99° |
| 2026-04-23 13:42 | 22.17817 | 118.85073 | 33845 ft | 521 kts | 99° |
| 2026-04-23 13:42 | 22.17348 | 118.88961 | 32848 ft | 524 kts | 99° |
| 2026-04-23 13:42 | 22.16884 | 118.92827 | 31844 ft | 526 kts | 98° |
| 2026-04-23 13:42 | 22.16413 | 118.96754 | 30805 ft | 529 kts | 98° |
| 2026-04-23 13:43 | 22.15931 | 119.00709 | 29848 ft | 530 kts | 98° |
| 2026-04-23 13:43 | 22.15439 | 119.04632 | 29085 ft | 525 kts | 98° |
| 2026-04-23 13:43 | 22.14952 | 119.08496 | 28461 ft | 517 kts | 98° |
| 2026-04-23 13:43 | 22.14478 | 119.12320 | 27840 ft | 511 kts | 98° |
| 2026-04-23 13:44 | 22.14022 | 119.16103 | 27177 ft | 506 kts | 98° |
| 2026-04-23 13:44 | 22.13574 | 119.19859 | 26498 ft | 502 kts | 98° |
| 2026-04-23 13:44 | 22.13130 | 119.23581 | 25830 ft | 499 kts | 98° |
| 2026-04-23 13:44 | 22.12688 | 119.27270 | 25189 ft | 495 kts | 98° |
| 2026-04-23 13:45 | 22.12393 | 119.29720 | 24786 ft | 492 kts | 99° |
| 2026-04-23 13:45 | 22.11809 | 119.34556 | 23994 ft | 487 kts | 99° |
| 2026-04-23 13:45 | 22.11371 | 119.38161 | 23394 ft | 484 kts | 99° |
| 2026-04-23 13:45 | 22.10935 | 119.41743 | 22737 ft | 480 kts | 99° |
| 2026-04-23 13:46 | 22.10503 | 119.45285 | 22127 ft | 467 kts | 99° |
| 2026-04-23 13:46 | 22.10086 | 119.48709 | 21187 ft | 456 kts | 99° |
| 2026-04-23 13:46 | 22.09673 | 119.52078 | 20130 ft | 450 kts | 99° |
| 2026-04-23 13:46 | 22.09265 | 119.55408 | 19037 ft | 445 kts | 99° |
| 2026-04-23 13:47 | 22.08860 | 119.58698 | 18008 ft | 440 kts | 98° |
| 2026-04-23 13:47 | 22.08595 | 119.60856 | 17267 ft | 435 kts | 98° |
| 2026-04-23 13:47 | 22.08069 | 119.65135 | 15952 ft | 424 kts | 98° |
| 2026-04-23 13:47 | 22.07812 | 119.67210 | 15479 ft | 422 kts | 98° |
| 2026-04-23 13:48 | 22.07421 | 119.70339 | 15155 ft | 417 kts | 98° |
| 2026-04-23 13:48 | 22.07036 | 119.73391 | 14638 ft | 404 kts | 98° |
| 2026-04-23 13:48 | 22.06542 | 119.77296 | 13689 ft | 389 kts | 99° |
| 2026-04-23 13:48 | 22.06297 | 119.79233 | 13174 ft | 381 kts | 99° |
| 2026-04-23 13:49 | 22.05943 | 119.82027 | 12471 ft | 370 kts | 99° |
| 2026-04-23 13:49 | 22.05604 | 119.84708 | 11759 ft | 362 kts | 99° |
| 2026-04-23 13:49 | 22.05261 | 119.87409 | 10972 ft | 356 kts | 99° |
| 2026-04-23 13:49 | 22.04931 | 119.90007 | 10394 ft | 356 kts | 99° |
| 2026-04-23 13:50 | 22.04666 | 119.92615 | 10184 ft | 345 kts | 91° |
| 2026-04-23 13:50 | 22.05118 | 119.95103 | 9824 ft | 335 kts | 66° |
| 2026-04-23 13:50 | 22.06385 | 119.97146 | 9264 ft | 323 kts | 42° |
| 2026-04-23 13:50 | 22.08134 | 119.98579 | 8796 ft | 309 kts | 27° |
| 2026-04-23 13:51 | 22.10065 | 119.99439 | 8358 ft | 293 kts | 9° |
| 2026-04-23 13:51 | 22.12023 | 119.99865 | 7942 ft | 282 kts | 6° |
| 2026-04-23 13:51 | 22.13933 | 120.00231 | 7558 ft | 273 kts | 6° |
| 2026-04-23 13:51 | 22.15795 | 120.00584 | 7261 ft | 270 kts | 6° |
| 2026-04-23 13:52 | 22.17611 | 120.00933 | 7066 ft | 266 kts | 6° |
| 2026-04-23 13:52 | 22.19427 | 120.01287 | 6809 ft | 264 kts | 6° |
| 2026-04-23 13:52 | 22.21227 | 120.01643 | 6527 ft | 263 kts | 6° |
| 2026-04-23 13:52 | 22.23016 | 120.02001 | 6357 ft | 256 kts | 6° |
| 2026-04-23 13:53 | 22.24738 | 120.02349 | 6034 ft | 249 kts | 7° |
| 2026-04-23 13:53 | 22.26428 | 120.02691 | 5606 ft | 246 kts | 7° |
| 2026-04-23 13:53 | 22.28107 | 120.03031 | 5154 ft | 245 kts | 7° |
| 2026-04-23 13:53 | 22.29773 | 120.03370 | 4789 ft | 241 kts | 7° |
| 2026-04-23 13:54 | 22.31398 | 120.03701 | 4526 ft | 236 kts | 7° |
| 2026-04-23 13:54 | 22.32997 | 120.04026 | 4346 ft | 232 kts | 7° |
| 2026-04-23 13:54 | 22.34577 | 120.04348 | 4082 ft | 231 kts | 8° |
| 2026-04-23 13:54 | 22.36082 | 120.04655 | 3867 ft | 228 kts | 7° |
| 2026-04-23 13:55 | 22.37643 | 120.04974 | 3626 ft | 228 kts | 8° |
| 2026-04-23 13:55 | 22.39198 | 120.05291 | 3364 ft | 228 kts | 8° |
| 2026-04-23 13:55 | 22.40735 | 120.05606 | 3156 ft | 226 kts | 8° |
| 2026-04-23 13:55 | 22.42253 | 120.05918 | 3069 ft | 216 kts | 8° |
| 2026-04-23 13:56 | 22.43730 | 120.06222 | 3024 ft | 216 kts | 8° |
| 2026-04-23 13:56 | 22.45204 | 120.06524 | 3010 ft | 215 kts | 8° |
| 2026-04-23 13:56 | 22.46666 | 120.06824 | 3009 ft | 213 kts | 8° |
| 2026-04-23 13:56 | 22.48122 | 120.07123 | 3011 ft | 212 kts | 8° |
| 2026-04-23 13:57 | 22.49571 | 120.07420 | 3010 ft | 211 kts | 8° |
| 2026-04-23 13:57 | 22.51018 | 120.07717 | 3008 ft | 211 kts | 8° |
| 2026-04-23 13:57 | 22.52427 | 120.08007 | 2997 ft | 204 kts | 8° |
| 2026-04-23 13:57 | 22.53798 | 120.08290 | 2999 ft | 198 kts | 8° |
| 2026-04-23 13:58 | 22.55150 | 120.08567 | 3045 ft | 198 kts | 8° |
| 2026-04-23 13:58 | 22.56481 | 120.08840 | 3016 ft | 195 kts | 8° |
| 2026-04-23 13:58 | 22.57726 | 120.09357 | 2996 ft | 195 kts | 39° |
| 2026-04-23 13:58 | 22.58413 | 120.10598 | 3010 ft | 195 kts | 80° |
| 2026-04-23 13:59 | 22.58418 | 120.12044 | 3029 ft | 191 kts | 92° |
| 2026-04-23 13:59 | 22.58370 | 120.13488 | 3046 ft | 190 kts | 91° |
| 2026-04-23 13:59 | 22.58326 | 120.14923 | 3019 ft | 191 kts | 91° |
| 2026-04-23 13:59 | 22.58282 | 120.16347 | 3016 ft | 186 kts | 91° |
| 2026-04-23 14:00 | 22.58252 | 120.17266 | 2865 ft | 184 kts | 91° |
| 2026-04-23 14:00 | 22.58196 | 120.19075 | 2594 ft | 176 kts | 91° |
| 2026-04-23 14:00 | 22.58156 | 120.20375 | 2339 ft | 169 kts | 91° |
| 2026-04-23 14:00 | 22.58118 | 120.21630 | 2139 ft | 168 kts | 91° |
| 2026-04-23 14:01 | 22.58078 | 120.22902 | 1941 ft | 170 kts | 91° |
| 2026-04-23 14:01 | 22.58040 | 120.24152 | 1706 ft | 161 kts | 90° |
| 2026-04-23 14:01 | 22.58004 | 120.25313 | 1487 ft | 151 kts | 90° |
| 2026-04-23 14:01 | 22.57970 | 120.26427 | 1328 ft | 149 kts | 90° |
| 2026-04-23 14:02 | 22.57936 | 120.27552 | 1116 ft | 148 kts | 90° |
| 2026-04-23 14:02 | 22.57902 | 120.28668 | 930 ft | 148 kts | 90° |
| 2026-04-23 14:02 | 22.57867 | 120.29777 | 770 ft | 148 kts | 90° |
| 2026-04-23 14:02 | 22.57835 | 120.30875 | 581 ft | 146 kts | 90° |
| 2026-04-23 14:03 | 22.57799 | 120.31957 | 385 ft | 144 kts | 90° |
| 2026-04-23 14:03 | 22.57772 | 120.33029 | 218 ft | 142 kts | 89° |
| 2026-04-23 14:03 | 22.57732 | 120.34095 | 52 ft | 137 kts | 90° |
| 2026-04-23 14:03 | 22.57710 | 120.35034 | 42 ft | 109 kts | 92° |
| 2026-04-23 14:04 | 22.57686 | 120.35721 | 43 ft | 73 kts | 92° |
| 2026-04-23 14:04 | 22.57671 | 120.36170 | 44 ft | 44 kts | 91° |
| 2026-04-23 14:04 | 22.57658 | 120.36383 | 45 ft | 19 kts | 117° |
| 2026-04-23 14:04 | 22.57569 | 120.36413 | 44 ft | 9 kts | 181° |
| 2026-04-23 14:05 | 22.57514 | 120.36385 | 43 ft | 10 kts | 245° |
| 2026-04-23 14:05 | 22.57501 | 120.36306 | 43 ft | 11 kts | 269° |
| 2026-04-23 14:05 | 22.57502 | 120.36218 | 43 ft | 13 kts | 271° |
| 2026-04-23 14:05 | 22.57506 | 120.36110 | 43 ft | 16 kts | 272° |
| 2026-04-23 14:06 | 22.57510 | 120.35979 | 43 ft | 18 kts | 272° |
| 2026-04-23 14:06 | 22.57514 | 120.35838 | 43 ft | 19 kts | 272° |
| 2026-04-23 14:06 | 22.57519 | 120.35691 | 43 ft | 20 kts | 271° |
| 2026-04-23 14:06 | 22.57523 | 120.35544 | 43 ft | 20 kts | 272° |
| 2026-04-23 14:07 | 22.57528 | 120.35394 | 43 ft | 20 kts | 272° |
| 2026-04-23 14:07 | 22.57537 | 120.35080 | 43 ft | 21 kts | 271° |
| 2026-04-23 14:07 | 22.57542 | 120.34923 | 43 ft | 21 kts | 272° |
| 2026-04-23 14:08 | 22.57547 | 120.34763 | 43 ft | 21 kts | 272° |
| 2026-04-23 14:08 | 22.57541 | 120.34641 | 43 ft | 15 kts | 237° |
| 2026-04-23 14:08 | 22.57445 | 120.34614 | 43 ft | 13 kts | 181° |
| 2026-04-23 14:08 | 22.57397 | 120.34563 | 43 ft | 12 kts | 262° |
| 2026-04-23 14:09 | 22.57397 | 120.34472 | 43 ft | 13 kts | 271° |
| 2026-04-23 14:09 | 22.57399 | 120.34402 | 39 ft | 7 kts | 271° |
| 2026-04-23 14:09 | 22.57396 | 120.34347 | 43 ft | 7 kts | 247° |
| 2026-04-23 14:09 | 22.57346 | 120.34327 | 43 ft | 8 kts | 187° |
| 2026-04-23 14:10 | 22.57286 | 120.34321 | 43 ft | 8 kts | 200° |
| 2026-04-23 14:10 | 22.57267 | 120.34273 | 43 ft | 5 kts | 262° |
| 2026-04-23 14:10 | 22.57266 | 120.34243 | 43 ft | 1 kts | 271° |
| 2026-04-23 14:10 | 22.57266 | 120.34240 | 43 ft | 1 kts | 270° |
| 2026-04-23 14:11 | 22.57266 | 120.34233 | 43 ft | 1 kts | 271° |
| 2026-04-23 14:12 | 22.57264 | 120.34223 | 43 ft | 0 kts | 272° |